createdAt,value
2022-10-23T00:00:16.323Z,15.30
2022-10-23T00:02:19.255Z,15.30
2022-10-23T00:04:25.401Z,15.30
2022-10-23T00:06:29.562Z,15.30
2022-10-23T00:08:32.482Z,15.30
2022-10-23T00:10:36.351Z,15.30
2022-10-23T00:12:40.952Z,15.20
2022-10-23T00:14:44.436Z,15.20
2022-10-23T00:16:47.388Z,15.20
2022-10-23T00:18:50.930Z,15.20
2022-10-23T00:20:53.891Z,15.20
2022-10-23T00:22:56.834Z,15.20
2022-10-23T00:24:59.753Z,15.10
2022-10-23T00:27:02.886Z,15.10
2022-10-23T00:29:07.763Z,15.10
2022-10-23T00:31:10.698Z,15.10
2022-10-23T00:33:13.562Z,15.10
2022-10-23T00:35:16.604Z,15.10
2022-10-23T00:37:19.599Z,15.10
2022-10-23T00:39:22.512Z,15.10
2022-10-23T00:41:28.425Z,15.10
2022-10-23T00:43:32.618Z,15.10
2022-10-23T00:45:36.860Z,15.10
2022-10-23T00:47:40.333Z,15.10
2022-10-23T00:49:43.285Z,15.10
2022-10-23T00:51:49.638Z,15.00
2022-10-23T00:54:06.745Z,15.10
2022-10-23T00:56:20.288Z,15.10
2022-10-23T00:58:23.638Z,15.00
2022-10-23T01:00:28.933Z,15.00
2022-10-23T01:02:34.800Z,15.10
2022-10-23T01:04:38.986Z,15.10
2022-10-23T01:06:47.418Z,15.10
2022-10-23T01:08:55.936Z,15.10
2022-10-23T01:11:04.973Z,15.10
2022-10-23T01:13:13.705Z,15.10
2022-10-23T01:15:21.353Z,15.10
2022-10-23T01:17:31.022Z,15.10
2022-10-23T01:19:47.411Z,15.10
2022-10-23T01:21:56.560Z,15.10
2022-10-23T01:24:11.343Z,15.10
2022-10-23T01:26:36.654Z,15.10
2022-10-23T01:28:47.955Z,15.10
2022-10-23T01:30:51.335Z,15.10
2022-10-23T01:32:57.722Z,15.10
2022-10-23T01:35:06.360Z,15.10
2022-10-23T01:37:15.062Z,15.10
2022-10-23T01:39:24.399Z,15.00
2022-10-23T01:41:32.746Z,15.00
2022-10-23T01:43:41.755Z,15.00
2022-10-23T01:45:50.980Z,15.10
2022-10-23T01:47:56.256Z,15.00
2022-10-23T01:50:01.014Z,15.00
2022-10-23T01:52:09.625Z,15.00
2022-10-23T01:54:16.035Z,15.00
2022-10-23T01:56:22.912Z,15.00
2022-10-23T01:58:28.175Z,14.90
2022-10-23T02:00:31.544Z,14.90
2022-10-23T02:02:38.867Z,14.80
2022-10-23T02:04:57.505Z,14.80
2022-10-23T02:07:00.600Z,14.80
2022-10-23T02:09:04.117Z,14.70
2022-10-23T02:11:11.208Z,14.70
2022-10-23T02:13:20.134Z,14.70
2022-10-23T02:15:29.678Z,14.60
2022-10-23T02:17:45.341Z,14.60
2022-10-23T02:19:55.874Z,14.60
2022-10-23T02:22:05.809Z,14.60
2022-10-23T02:24:12.520Z,14.60
2022-10-23T02:26:19.891Z,14.60
2022-10-23T02:28:28.394Z,14.60
2022-10-23T02:30:33.570Z,14.60
2022-10-23T02:32:40.074Z,14.60
2022-10-23T02:34:44.456Z,14.60
2022-10-23T02:36:47.803Z,14.50
2022-10-23T02:38:50.842Z,14.50
2022-10-23T02:40:55.170Z,14.50
2022-10-23T02:43:03.168Z,14.50
2022-10-23T02:45:13.025Z,14.50
2022-10-23T02:47:28.870Z,14.40
2022-10-23T02:49:39.379Z,14.40
2022-10-23T02:51:55.908Z,14.30
2022-10-23T02:54:06.132Z,14.30
2022-10-23T02:56:13.963Z,14.20
2022-10-23T02:58:23.291Z,14.20
2022-10-23T03:00:28.180Z,14.20
2022-10-23T03:02:37.382Z,14.20
2022-10-23T03:04:42.860Z,14.30
2022-10-23T03:06:47.722Z,14.30
2022-10-23T03:08:55.099Z,14.30
2022-10-23T03:10:58.171Z,14.30
2022-10-23T03:13:01.171Z,14.20
2022-10-23T03:15:05.082Z,14.20
2022-10-23T03:17:08.052Z,14.20
2022-10-23T03:21:15.189Z,14.20
2022-10-23T03:23:19.401Z,14.20
2022-10-23T03:25:22.419Z,14.30
2022-10-23T03:27:25.390Z,14.30
2022-10-23T03:29:28.284Z,14.20
2022-10-23T03:31:31.385Z,14.20
2022-10-23T03:33:34.571Z,14.20
2022-10-23T03:35:37.604Z,14.20
2022-10-23T03:37:40.757Z,14.10
2022-10-23T03:39:45.409Z,14.10
2022-10-23T03:41:48.414Z,14.10
2022-10-23T03:43:51.510Z,14.10
2022-10-23T03:45:54.379Z,14.00
2022-10-23T03:47:57.271Z,14.10
2022-10-23T03:50:00.141Z,14.10
2022-10-23T03:52:03.189Z,14.00
2022-10-23T03:54:06.327Z,14.00
2022-10-23T03:56:10.696Z,14.00
2022-10-23T03:58:13.653Z,14.00
2022-10-23T04:00:17.781Z,14.00
2022-10-23T04:02:20.811Z,13.90
2022-10-23T04:04:23.962Z,13.90
2022-10-23T04:06:26.957Z,13.80
2022-10-23T04:08:30.230Z,13.80
2022-10-23T04:10:33.275Z,13.80
2022-10-23T04:12:37.566Z,13.80
2022-10-23T04:14:40.501Z,13.80
2022-10-23T04:16:43.482Z,13.80
2022-10-23T04:18:46.400Z,13.80
2022-10-23T04:20:50.188Z,13.80
2022-10-23T04:22:53.098Z,13.70
2022-10-23T04:24:55.971Z,13.70
2022-10-23T04:26:59.250Z,13.70
2022-10-23T04:29:03.453Z,13.70
2022-10-23T04:31:06.570Z,13.70
2022-10-23T04:33:09.643Z,13.70
2022-10-23T04:35:12.682Z,13.70
2022-10-23T04:37:15.530Z,13.70
2022-10-23T04:39:18.375Z,13.70
2022-10-23T04:41:21.299Z,13.70
2022-10-23T04:43:24.671Z,13.70
2022-10-23T04:45:29.113Z,13.70
2022-10-23T04:47:31.958Z,13.60
2022-10-23T04:49:34.837Z,13.60
2022-10-23T04:51:39.189Z,13.60
2022-10-23T04:53:42.103Z,13.50
2022-10-23T04:55:50.365Z,13.50
2022-10-23T04:57:53.460Z,13.50
2022-10-23T04:59:56.335Z,13.50
2022-10-23T05:02:00.755Z,13.50
2022-10-23T05:04:03.651Z,13.50
2022-10-23T05:06:07.355Z,13.50
2022-10-23T05:08:14.318Z,13.50
2022-10-23T05:10:20.141Z,13.50
2022-10-23T05:12:25.411Z,13.50
2022-10-23T05:14:28.253Z,13.50
2022-10-23T05:16:38.585Z,13.40
2022-10-23T05:18:48.787Z,13.40
2022-10-23T05:20:55.380Z,13.40
2022-10-23T05:23:01.425Z,13.40
2022-10-23T05:25:05.445Z,13.40
2022-10-23T05:27:08.341Z,13.40
2022-10-23T05:29:11.205Z,13.40
2022-10-23T05:31:14.251Z,13.40
2022-10-23T05:33:17.152Z,13.30
2022-10-23T05:35:24.442Z,13.40
2022-10-23T05:37:28.239Z,13.30
2022-10-23T05:39:31.454Z,13.30
2022-10-23T05:41:34.359Z,13.30
2022-10-23T05:43:37.389Z,13.40
2022-10-23T05:45:40.334Z,13.30
2022-10-23T05:47:45.240Z,13.40
2022-10-23T05:49:48.096Z,13.40
2022-10-23T05:51:52.392Z,13.40
2022-10-23T05:53:56.496Z,13.40
2022-10-23T05:56:05.782Z,13.40
2022-10-23T05:58:08.808Z,13.40
2022-10-23T06:00:13.348Z,13.40
2022-10-23T06:02:16.250Z,13.40
2022-10-23T06:04:19.281Z,13.40
2022-10-23T06:06:22.489Z,13.50
2022-10-23T06:08:26.704Z,13.50
2022-10-23T06:10:29.684Z,13.40
2022-10-23T06:12:33.247Z,13.40
2022-10-23T06:14:36.128Z,13.50
2022-10-23T06:16:39.076Z,13.50
2022-10-23T06:18:42.468Z,13.50
2022-10-23T06:20:45.370Z,13.50
2022-10-23T06:22:48.285Z,13.50
2022-10-23T06:24:52.583Z,13.60
2022-10-23T06:26:55.676Z,13.60
2022-10-23T06:28:58.861Z,13.60
2022-10-23T06:31:05.912Z,13.60
2022-10-23T06:33:08.827Z,13.60
2022-10-23T06:35:11.707Z,13.70
2022-10-23T06:37:14.619Z,13.70
2022-10-23T06:39:17.558Z,13.70
2022-10-23T06:41:23.238Z,13.70
2022-10-23T06:43:26.208Z,13.80
2022-10-23T06:45:30.009Z,13.80
2022-10-23T06:47:32.900Z,13.80
2022-10-23T06:49:35.832Z,13.80
2022-10-23T06:51:38.917Z,13.80
2022-10-23T06:53:41.912Z,13.90
2022-10-23T06:55:44.855Z,13.90
2022-10-23T06:57:49.327Z,13.90
2022-10-23T06:59:52.222Z,14.00
2022-10-23T07:03:58.015Z,14.00
2022-10-23T07:06:02.284Z,14.00
2022-10-23T07:08:06.722Z,14.00
2022-10-23T07:10:10.132Z,14.00
2022-10-23T07:12:13.117Z,14.00
2022-10-23T07:14:17.391Z,14.10
2022-10-23T07:16:22.089Z,14.10
2022-10-23T07:18:25.587Z,14.10
2022-10-23T07:20:28.810Z,14.20
2022-10-23T07:22:31.687Z,14.10
2022-10-23T07:24:37.100Z,14.10
2022-10-23T07:26:41.457Z,14.20
2022-10-23T07:28:46.313Z,14.20
2022-10-23T07:30:58.853Z,14.30
2022-10-23T07:33:01.730Z,14.30
2022-10-23T07:35:05.214Z,14.40
2022-10-23T07:37:08.149Z,14.40
2022-10-23T07:39:11.896Z,14.40
2022-10-23T07:41:15.431Z,14.50
2022-10-23T07:43:20.728Z,14.60
2022-10-23T07:45:23.813Z,14.60
2022-10-23T07:47:28.132Z,14.70
2022-10-23T07:49:31.324Z,14.80
2022-10-23T07:51:34.322Z,14.80
2022-10-23T07:53:38.059Z,14.90
2022-10-23T07:55:40.931Z,14.90
2022-10-23T07:57:43.894Z,14.90
2022-10-23T07:59:47.011Z,14.90
2022-10-23T08:01:51.642Z,15.00
2022-10-23T08:03:58.100Z,15.00
2022-10-23T08:06:01.336Z,15.10
2022-10-23T08:08:04.365Z,15.10
2022-10-23T08:10:08.168Z,15.20
2022-10-23T08:12:11.354Z,15.20
2022-10-23T08:14:14.356Z,15.30
2022-10-23T08:16:17.274Z,15.30
2022-10-23T08:18:20.239Z,15.40
2022-10-23T08:20:24.615Z,15.40
2022-10-23T08:22:27.462Z,15.40
2022-10-23T08:24:30.524Z,15.50
2022-10-23T08:26:33.502Z,15.60
2022-10-23T08:28:37.136Z,15.70
2022-10-23T08:30:40.098Z,15.80
2022-10-23T08:32:43.179Z,15.90
2022-10-23T08:34:46.279Z,15.90
2022-10-23T08:36:50.922Z,16.10
2022-10-23T08:38:55.055Z,16.20
2022-10-23T08:40:58.129Z,16.30
2022-10-23T08:43:06.246Z,16.40
2022-10-23T08:45:22.689Z,16.60
2022-10-23T08:47:32.154Z,16.70
2022-10-23T08:49:45.996Z,16.80
2022-10-23T08:51:53.592Z,17.00
2022-10-23T08:54:03.970Z,17.10
2022-10-23T08:56:13.862Z,17.20
2022-10-23T08:58:19.776Z,17.30
2022-10-23T09:00:22.746Z,17.30
2022-10-23T09:02:28.744Z,17.50
2022-10-23T09:04:32.552Z,17.60
2022-10-23T09:06:40.009Z,17.70
2022-10-23T09:08:53.971Z,17.80
2022-10-23T09:11:06.827Z,17.90
2022-10-23T09:13:39.268Z,18.00
2022-10-23T09:15:48.476Z,18.00
2022-10-23T09:17:59.127Z,18.10
2022-10-23T09:20:13.635Z,18.20
2022-10-23T09:22:16.583Z,18.30
2022-10-23T09:24:23.435Z,18.40
2022-10-23T09:26:26.400Z,18.50
2022-10-23T09:28:33.100Z,18.50
2022-10-23T09:30:38.198Z,18.60
2022-10-23T09:32:42.993Z,18.70
2022-10-23T09:34:54.168Z,18.70
2022-10-23T09:36:59.136Z,18.80
2022-10-23T09:39:02.505Z,18.80
2022-10-23T09:41:14.184Z,18.90
2022-10-23T09:43:23.199Z,18.90
2022-10-23T09:45:30.916Z,19.00
2022-10-23T09:47:33.857Z,19.10
2022-10-23T09:49:39.913Z,19.30
2022-10-23T09:52:00.452Z,19.30
2022-10-23T09:54:03.591Z,19.30
2022-10-23T09:56:25.028Z,19.40
2022-10-23T09:58:32.531Z,19.40
2022-10-23T10:00:35.404Z,19.50
2022-10-23T10:02:38.616Z,19.50
2022-10-23T10:04:42.897Z,19.60
2022-10-23T10:06:46.553Z,19.70
2022-10-23T10:08:52.739Z,19.80
2022-10-23T10:11:01.867Z,19.80
2022-10-23T10:13:19.048Z,19.80
2022-10-23T10:15:28.553Z,19.90
2022-10-23T10:17:38.749Z,20.00
2022-10-23T10:19:57.591Z,20.10
2022-10-23T10:22:08.853Z,20.00
2022-10-23T10:24:19.440Z,20.10
2022-10-23T10:26:35.936Z,20.10
2022-10-23T10:29:00.543Z,20.20
2022-10-23T10:31:14.796Z,20.30
2022-10-23T10:33:23.311Z,20.30
2022-10-23T10:35:38.975Z,20.30
2022-10-23T10:37:57.427Z,20.40
2022-10-23T10:40:07.706Z,20.40
2022-10-23T10:42:32.307Z,20.50
2022-10-23T10:44:48.987Z,20.60
2022-10-23T10:46:57.856Z,20.60
2022-10-23T10:49:04.212Z,20.60
2022-10-23T10:51:09.774Z,20.70
2022-10-23T10:53:25.741Z,20.80
2022-10-23T10:55:34.650Z,20.80
2022-10-23T10:57:41.319Z,20.90
2022-10-23T10:59:47.927Z,20.90
2022-10-23T11:01:57.594Z,20.90
2022-10-23T11:04:05.573Z,21.00
2022-10-23T11:06:16.084Z,21.00
2022-10-23T11:08:22.253Z,21.10
2022-10-23T11:10:25.419Z,21.10
2022-10-23T11:12:29.678Z,21.10
2022-10-23T11:14:35.338Z,21.10
2022-10-23T11:16:43.800Z,21.10
2022-10-23T11:18:52.634Z,21.20
2022-10-23T11:21:08.422Z,21.20
2022-10-23T11:23:35.065Z,21.30
2022-10-23T11:25:59.068Z,21.20
2022-10-23T11:28:17.295Z,21.20
2022-10-23T11:30:26.035Z,21.30
2022-10-23T11:32:52.729Z,21.30
2022-10-23T11:35:11.677Z,21.30
2022-10-23T11:37:18.065Z,21.40
2022-10-23T11:39:24.995Z,21.40
2022-10-23T11:41:33.841Z,21.40
2022-10-23T11:43:49.279Z,21.50
2022-10-23T11:45:52.261Z,21.40
2022-10-23T11:48:03.347Z,21.40
2022-10-23T11:50:31.481Z,21.40
2022-10-23T11:52:38.765Z,21.40
2022-10-23T11:54:48.528Z,21.50
2022-10-23T11:56:57.479Z,21.50
2022-10-23T11:59:18.571Z,21.60
2022-10-23T12:01:38.099Z,21.60
2022-10-23T12:03:53.222Z,21.60
2022-10-23T12:06:03.599Z,21.60
2022-10-23T12:08:09.887Z,21.60
2022-10-23T12:10:25.252Z,21.70
2022-10-23T12:12:31.132Z,21.70
2022-10-23T12:14:36.149Z,21.70
2022-10-23T12:16:39.243Z,21.70
2022-10-23T12:18:53.020Z,21.70
2022-10-23T12:20:58.919Z,21.60
2022-10-23T12:23:43.226Z,21.60
2022-10-23T12:26:06.298Z,21.60
2022-10-23T12:28:15.580Z,21.70
2022-10-23T12:30:24.011Z,21.60
2022-10-23T12:32:40.908Z,21.70
2022-10-23T12:34:56.016Z,21.60
2022-10-23T12:37:14.325Z,21.60
2022-10-23T12:39:30.973Z,21.60
2022-10-23T12:41:35.796Z,21.50
2022-10-23T12:43:40.624Z,21.50
2022-10-23T12:45:45.161Z,21.60
2022-10-23T12:47:49.580Z,21.60
2022-10-23T12:49:53.792Z,21.60
2022-10-23T12:51:59.280Z,21.60
2022-10-23T12:54:03.864Z,21.60
2022-10-23T12:56:07.267Z,21.60
2022-10-23T12:58:20.270Z,21.60
2022-10-23T13:00:25.343Z,21.50
2022-10-23T13:02:30.571Z,21.50
2022-10-23T13:04:35.988Z,21.60
2022-10-23T13:06:41.076Z,21.60
2022-10-23T13:08:46.682Z,21.60
2022-10-23T13:10:50.133Z,21.60
2022-10-23T13:12:56.883Z,21.60
2022-10-23T13:15:03.585Z,21.60
2022-10-23T13:17:08.652Z,21.60
2022-10-23T13:19:24.444Z,21.70
2022-10-23T13:21:29.723Z,21.60
2022-10-23T13:23:35.514Z,21.60
2022-10-23T13:25:40.216Z,21.60
2022-10-23T13:27:43.448Z,21.60
2022-10-23T13:29:46.516Z,21.60
2022-10-23T13:31:50.125Z,21.50
2022-10-23T13:34:04.653Z,21.50
2022-10-23T13:36:22.051Z,21.50
2022-10-23T13:38:30.451Z,21.50
2022-10-23T13:40:34.812Z,21.40
2022-10-23T13:42:37.687Z,21.40
2022-10-23T13:44:40.589Z,21.40
2022-10-23T13:46:44.297Z,21.40
2022-10-23T13:48:48.897Z,21.40
2022-10-23T13:50:51.967Z,21.40
2022-10-23T13:52:55.020Z,21.40
2022-10-23T13:54:57.890Z,21.40
2022-10-23T13:57:02.231Z,21.40
2022-10-23T13:59:05.135Z,21.50
2022-10-23T14:01:13.584Z,21.50
2022-10-23T14:03:17.342Z,21.40
2022-10-23T14:05:20.481Z,21.40
2022-10-23T14:07:23.296Z,21.40
2022-10-23T14:09:26.189Z,21.50
2022-10-23T14:11:29.054Z,21.50
2022-10-23T14:13:33.281Z,21.50
2022-10-23T14:15:36.171Z,21.50
2022-10-23T14:17:39.595Z,21.50
2022-10-23T14:19:42.478Z,21.50
2022-10-23T14:21:45.373Z,21.60
2022-10-23T14:23:48.905Z,21.60
2022-10-23T14:25:51.750Z,21.60
2022-10-23T14:30:00.307Z,21.50
2022-10-23T14:32:03.196Z,21.50
2022-10-23T14:34:06.066Z,21.50
2022-10-23T14:36:10.026Z,21.50
2022-10-23T14:38:13.085Z,21.50
2022-10-23T14:40:16.063Z,21.50
2022-10-23T14:42:19.464Z,21.60
2022-10-23T14:44:22.492Z,21.50
2022-10-23T14:46:27.961Z,21.50
2022-10-23T14:48:30.907Z,21.40
2022-10-23T14:50:35.693Z,21.40
2022-10-23T14:52:38.684Z,21.40
2022-10-23T14:54:41.721Z,21.50
2022-10-23T14:56:44.608Z,21.40
2022-10-23T14:58:47.506Z,21.50
2022-10-23T15:00:58.804Z,21.50
2022-10-23T15:03:03.175Z,21.50
2022-10-23T15:05:07.054Z,21.50
2022-10-23T15:07:09.973Z,21.50
2022-10-23T15:09:12.869Z,21.50
2022-10-23T15:11:15.773Z,21.40
2022-10-23T15:13:18.819Z,21.40
2022-10-23T15:15:22.353Z,21.40
2022-10-23T15:17:25.444Z,21.30
2022-10-23T15:19:29.779Z,21.30
2022-10-23T15:21:32.750Z,21.30
2022-10-23T15:23:36.544Z,21.20
2022-10-23T15:25:40.588Z,21.20
2022-10-23T15:27:43.710Z,21.20
2022-10-23T15:29:46.961Z,21.20
2022-10-23T15:31:55.790Z,21.20
2022-10-23T15:33:59.714Z,21.20
2022-10-23T15:36:04.262Z,21.10
2022-10-23T15:38:07.182Z,21.10
2022-10-23T15:40:11.208Z,21.00
2022-10-23T15:42:14.216Z,21.00
2022-10-23T15:44:19.575Z,21.00
2022-10-23T15:46:22.536Z,21.00
2022-10-23T15:48:25.401Z,20.90
2022-10-23T15:50:28.444Z,20.90
2022-10-23T15:52:32.827Z,20.90
2022-10-23T15:54:36.536Z,20.80
2022-10-23T15:56:39.726Z,20.80
2022-10-23T15:58:42.801Z,20.70
2022-10-23T16:00:45.889Z,20.70
2022-10-23T16:02:49.077Z,20.70
2022-10-23T16:04:52.027Z,20.60
2022-10-23T16:06:55.039Z,20.60
2022-10-23T16:08:59.402Z,20.60
2022-10-23T16:11:02.555Z,20.60
2022-10-23T16:13:05.634Z,20.60
2022-10-23T16:15:09.129Z,20.50
2022-10-23T16:17:13.262Z,20.40
2022-10-23T16:19:16.235Z,20.40
2022-10-23T16:21:21.267Z,20.40
2022-10-23T16:23:24.254Z,20.30
2022-10-23T16:25:28.555Z,20.30
2022-10-23T16:27:31.429Z,20.20
2022-10-23T16:29:34.374Z,20.20
2022-10-23T16:31:37.466Z,20.10
2022-10-23T16:33:40.865Z,20.10
2022-10-23T16:35:43.787Z,20.10
2022-10-23T16:37:47.009Z,20.00
2022-10-23T16:39:50.079Z,20.00
2022-10-23T16:41:54.591Z,20.00
2022-10-23T16:43:57.543Z,20.00
2022-10-23T16:46:06.504Z,20.00
2022-10-23T16:48:09.426Z,20.00
2022-10-23T16:50:12.428Z,20.00
2022-10-23T16:52:15.366Z,20.00
2022-10-23T16:54:18.473Z,19.90
2022-10-23T16:56:24.006Z,20.00
2022-10-23T16:58:28.627Z,19.90
2022-10-23T17:00:35.379Z,19.90
2022-10-23T17:02:38.742Z,19.80
2022-10-23T17:04:41.808Z,19.80
2022-10-23T17:06:44.882Z,19.80
2022-10-23T17:08:48.032Z,19.70
2022-10-23T17:10:50.890Z,19.80
2022-10-23T17:12:53.982Z,19.70
2022-10-23T17:14:58.230Z,19.70
2022-10-23T17:17:03.554Z,19.70
2022-10-23T17:19:20.703Z,19.70
2022-10-23T17:21:33.784Z,19.70
2022-10-23T17:23:36.689Z,19.70
2022-10-23T17:25:41.711Z,19.70
2022-10-23T17:27:46.956Z,19.70
2022-10-23T17:29:49.831Z,19.70
2022-10-23T17:31:54.252Z,19.70
2022-10-23T17:33:59.505Z,19.70
2022-10-23T17:36:03.113Z,19.70
2022-10-23T17:38:05.987Z,19.70
2022-10-23T17:40:09.718Z,19.70
2022-10-23T17:42:12.642Z,19.70
2022-10-23T17:44:16.065Z,19.70
2022-10-23T17:46:19.802Z,19.70
2022-10-23T17:48:24.064Z,19.70
2022-10-23T17:50:27.060Z,19.60
2022-10-23T17:52:30.002Z,19.60
2022-10-23T17:54:32.851Z,19.60
2022-10-23T17:56:37.653Z,19.60
2022-10-23T17:58:40.534Z,19.60
2022-10-23T18:00:43.588Z,19.60
2022-10-23T18:02:46.448Z,19.60
2022-10-23T18:04:50.648Z,19.60
2022-10-23T18:06:55.222Z,19.60
2022-10-23T18:08:58.891Z,19.60
2022-10-23T18:11:04.334Z,19.60
2022-10-23T18:13:07.193Z,19.60
2022-10-23T18:15:11.167Z,19.60
2022-10-23T18:17:14.011Z,19.60
2022-10-23T18:19:18.789Z,19.60
2022-10-23T18:21:24.914Z,19.60
2022-10-23T18:23:28.423Z,19.60
2022-10-23T18:25:31.380Z,19.60
2022-10-23T18:27:34.362Z,19.60
2022-10-23T18:29:38.134Z,19.70
2022-10-23T18:31:41.965Z,19.60
2022-10-23T18:33:45.223Z,19.70
2022-10-23T18:35:48.743Z,19.70
2022-10-23T18:37:53.002Z,19.70
2022-10-23T18:39:55.880Z,19.70
2022-10-23T18:41:59.592Z,19.70
2022-10-23T18:44:02.613Z,19.70
2022-10-23T18:46:06.012Z,19.70
2022-10-23T18:48:09.023Z,19.70
2022-10-23T18:50:12.380Z,19.60
2022-10-23T18:52:15.260Z,19.70
2022-10-23T18:54:21.690Z,19.70
2022-10-23T18:56:26.824Z,19.70
2022-10-23T18:58:29.745Z,19.80
2022-10-23T19:00:32.650Z,19.80
2022-10-23T19:02:36.007Z,19.80
2022-10-23T19:04:39.089Z,19.80
2022-10-23T19:06:42.310Z,19.80
2022-10-23T19:08:46.740Z,19.80
2022-10-23T19:10:52.602Z,19.90
2022-10-23T19:12:55.700Z,19.80
2022-10-23T19:15:00.264Z,19.90
2022-10-23T19:17:05.576Z,19.90
2022-10-23T19:19:15.553Z,19.90
2022-10-23T19:21:21.325Z,19.80
2022-10-23T19:23:24.500Z,19.80
2022-10-23T19:25:30.502Z,19.80
2022-10-23T19:27:34.869Z,19.80
2022-10-23T19:29:39.317Z,19.80
2022-10-23T19:31:44.698Z,19.80
2022-10-23T19:33:47.775Z,19.80
2022-10-23T19:35:50.675Z,19.80
2022-10-23T19:37:53.720Z,19.80
2022-10-23T19:39:56.596Z,19.80
2022-10-23T19:42:00.361Z,19.80
2022-10-23T19:44:04.659Z,19.80
2022-10-23T19:46:11.134Z,19.70
2022-10-23T19:48:15.457Z,19.70
2022-10-23T19:50:18.511Z,19.70
2022-10-23T19:52:22.342Z,19.70
2022-10-23T19:54:25.240Z,19.70
2022-10-23T19:56:28.199Z,19.70
2022-10-23T19:58:31.142Z,19.70
2022-10-23T20:00:36.421Z,19.70
2022-10-23T20:02:39.432Z,19.70
2022-10-23T20:04:42.585Z,19.70
2022-10-23T20:06:45.479Z,19.70
2022-10-23T20:08:48.713Z,19.60
2022-10-23T20:10:51.676Z,19.60
2022-10-23T20:13:02.550Z,19.50
2022-10-23T20:15:12.242Z,19.50
2022-10-23T20:17:16.769Z,19.50
2022-10-23T20:19:19.694Z,19.40
2022-10-23T20:21:23.618Z,19.40
2022-10-23T20:23:26.803Z,19.30
2022-10-23T20:25:29.727Z,19.30
2022-10-23T20:27:33.344Z,19.30
2022-10-23T20:29:36.605Z,19.40
2022-10-23T20:31:39.947Z,19.40
2022-10-23T20:33:44.272Z,19.50
2022-10-23T20:35:47.329Z,19.50
2022-10-23T20:37:50.217Z,19.50
2022-10-23T20:39:55.818Z,19.50
2022-10-23T20:42:00.224Z,19.50
2022-10-23T20:44:03.296Z,19.50
2022-10-23T20:46:07.445Z,19.50
2022-10-23T20:48:10.412Z,19.50
2022-10-23T20:50:14.746Z,19.50
2022-10-23T20:52:17.832Z,19.50
2022-10-23T20:54:20.846Z,19.50
2022-10-23T20:56:29.981Z,19.50
2022-10-23T20:58:32.926Z,19.60
2022-10-23T21:00:35.876Z,19.50
2022-10-23T21:02:38.964Z,19.40
2022-10-23T21:04:41.957Z,19.40
2022-10-23T21:07:08.345Z,19.40
2022-10-23T21:11:15.541Z,19.30
2022-10-23T21:13:19.164Z,19.30
2022-10-23T21:15:22.035Z,19.40
2022-10-23T21:17:25.114Z,19.40
2022-10-23T21:19:28.005Z,19.30
2022-10-23T21:21:33.035Z,19.20
2022-10-23T21:23:37.733Z,19.30
2022-10-23T21:25:41.552Z,19.20
2022-10-23T21:27:46.498Z,19.30
2022-10-23T21:29:49.549Z,19.30
2022-10-23T21:31:55.664Z,19.20
2022-10-23T21:33:58.676Z,19.20
2022-10-23T21:36:13.754Z,19.20
2022-10-23T21:38:17.023Z,19.20
2022-10-23T21:40:21.559Z,19.20
2022-10-23T21:42:24.476Z,19.20
2022-10-23T21:44:27.389Z,19.10
2022-10-23T21:46:31.822Z,19.00
2022-10-23T21:48:35.225Z,19.00
2022-10-23T21:50:38.283Z,19.00
2022-10-23T21:52:41.776Z,19.00
2022-10-23T21:54:44.843Z,19.00
2022-10-23T21:56:51.068Z,18.90
2022-10-23T21:58:54.447Z,18.90
2022-10-23T22:00:57.400Z,18.90
2022-10-23T22:03:00.576Z,18.90
2022-10-23T22:05:03.427Z,18.80
2022-10-23T22:07:07.413Z,18.80
2022-10-23T22:09:12.878Z,18.80
2022-10-23T22:11:16.579Z,18.80
2022-10-23T22:13:20.802Z,18.80
2022-10-23T22:15:23.698Z,18.80
2022-10-23T22:17:26.913Z,18.80
2022-10-23T22:19:29.818Z,18.80
2022-10-23T22:21:33.028Z,18.80
2022-10-23T22:23:36.956Z,18.90
2022-10-23T22:25:40.053Z,18.80
2022-10-23T22:27:43.284Z,18.90
2022-10-23T22:29:52.131Z,18.80
2022-10-23T22:31:55.080Z,18.80
2022-10-23T22:33:59.205Z,18.90
2022-10-23T22:36:04.541Z,18.90
2022-10-23T22:38:07.561Z,19.00
2022-10-23T22:40:11.625Z,19.00
2022-10-23T22:42:15.954Z,19.10
2022-10-23T22:44:19.260Z,19.10
2022-10-23T22:46:24.328Z,19.20
2022-10-23T22:48:29.026Z,19.20
2022-10-23T22:50:31.978Z,19.20
2022-10-23T22:52:34.997Z,19.20
2022-10-23T22:54:37.887Z,19.20
2022-10-23T22:56:41.744Z,19.20
2022-10-23T22:58:45.832Z,19.20
2022-10-23T23:00:49.190Z,19.10
2022-10-23T23:02:53.589Z,19.20
2022-10-23T23:04:56.661Z,19.20
2022-10-23T23:06:59.565Z,19.20
2022-10-23T23:09:02.793Z,19.20
2022-10-23T23:11:06.726Z,19.20
2022-10-23T23:13:09.735Z,19.20
2022-10-23T23:15:12.698Z,19.20
2022-10-23T23:17:15.803Z,19.20
2022-10-23T23:19:20.392Z,19.20
2022-10-23T23:21:23.326Z,19.20
2022-10-23T23:23:26.219Z,19.10
2022-10-23T23:25:29.189Z,19.10
2022-10-23T23:27:32.308Z,19.10
2022-10-23T23:29:35.450Z,19.20
2022-10-23T23:31:38.380Z,19.20
2022-10-23T23:33:41.503Z,19.10
2022-10-23T23:35:47.508Z,19.10
2022-10-23T23:37:50.371Z,19.10
2022-10-23T23:39:53.259Z,19.10
2022-10-23T23:41:56.247Z,19.10
2022-10-23T23:43:59.895Z,19.00
2022-10-23T23:46:02.764Z,19.00
2022-10-23T23:48:05.995Z,19.10
2022-10-23T23:50:10.986Z,19.10
2022-10-23T23:52:15.406Z,19.10
2022-10-23T23:54:18.752Z,19.10
2022-10-23T23:56:22.659Z,19.10
2022-10-23T23:58:25.665Z,19.00
